.
WxDataArchive / Data Records for 2014-09-17
2014-09-16 September 2014 2014-09-18

Data Records for Wednesday, 17 September 2014

Time	Temp	Chill	HIndex	Humid	Dewpt	 Wind 	HiWind	WindDir	Rain 	Barom
-----	----	-----	------	-----	-----	------	------	-------	-----	-----
00:00	50.5	50.5	50.5	86	46.5	0	0	---	0.00	30.085 
00:05	50.4	50.4	50.4	86	46.4	0	0	---	0.00	30.085 
00:10	50.1	50.1	50.1	87	46.4	0	0	---	0.00	30.085 
00:15	49.9	49.9	49.9	87	46.2	0	0	---	0.00	30.082 
00:20	49.6	49.6	49.6	87	45.9	0	0	---	0.00	30.082 
00:25	49.5	49.5	49.5	87	45.8	0	0	---	0.00	30.082 
00:30	49.2	49.2	49.2	88	45.8	0	0	---	0.00	30.083 
00:35	49.1	49.1	49.1	88	45.7	0	0	---	0.00	30.083 
00:40	48.9	48.9	48.9	88	45.5	0	0	---	0.00	30.083 
00:45	48.6	48.6	48.6	88	45.2	0	0	---	0.00	30.079 
00:50	48.5	48.5	48.5	89	45.4	0	0	---	0.00	30.079 
00:55	48.3	48.3	48.3	89	45.2	0	0	---	0.00	30.079 
01:00	48.2	48.2	48.2	89	45.1	0	0	---	0.00	30.079 
01:05	48.0	48.0	48.0	90	45.2	0	0	---	0.00	30.079 
01:10	47.7	47.7	47.7	90	44.9	0	0	---	0.00	30.079 
01:15	47.6	47.6	47.6	90	44.8	0	0	---	0.00	30.075 
01:20	47.4	47.4	47.4	90	44.6	0	0	---	0.00	30.075 
01:25	47.3	47.3	47.3	90	44.5	0	0	---	0.00	30.075 
01:30	47.1	47.1	47.1	91	44.6	0	0	---	0.00	30.076 
01:35	47.0	47.0	47.0	91	44.5	0	0	---	0.00	30.076 
01:40	46.8	46.8	46.8	91	44.3	0	0	---	0.00	30.076 
01:45	46.7	46.7	46.7	91	44.2	0	0	---	0.00	30.075 
01:50	46.7	46.7	46.7	91	44.2	0	0	---	0.00	30.075 
01:55	46.5	46.5	46.5	91	44.0	0	0	---	0.00	30.075 
02:00	46.4	46.4	46.4	92	44.2	0	0	---	0.00	30.075 
02:05	46.2	46.2	46.2	92	44.0	0	0	---	0.00	30.075 
02:10	46.1	46.1	46.1	92	43.9	0	0	---	0.00	30.075 
02:15	46.1	46.1	46.1	92	43.9	0	0	---	0.00	30.070 
02:20	46.0	46.0	46.0	92	43.8	0	0	---	0.00	30.070 
02:25	46.0	46.0	46.0	92	43.8	0	0	---	0.00	30.070 
02:30	46.0	46.0	46.0	92	43.8	0	0	---	0.00	30.070 
02:35	45.8	45.8	45.8	92	43.6	0	0	---	0.00	30.070 
02:40	45.8	45.8	45.8	92	43.6	0	0	---	0.00	30.070 
02:45	45.7	45.7	45.7	92	43.5	0	0	---	0.00	30.069 
02:50	45.5	45.5	45.5	92	43.3	0	0	---	0.00	30.069 
02:55	45.4	45.4	45.4	92	43.2	0	0	---	0.00	30.069 
03:00	45.2	45.2	45.2	92	43.0	0	0	---	0.00	30.072 
03:05	45.1	45.1	45.1	93	43.2	0	0	---	0.00	30.072 
03:10	45.1	45.1	45.1	93	43.2	0	0	---	0.00	30.072 
03:15	44.9	44.9	44.9	93	43.0	0	0	---	0.00	30.069 
03:20	44.9	44.9	44.9	93	43.0	0	0	---	0.00	30.069 
03:25	44.8	44.8	44.8	93	42.9	0	0	---	0.00	30.069 
03:30	44.6	44.6	44.6	93	42.7	0	0	---	0.00	30.068 
03:35	44.6	44.6	44.6	93	42.7	0	0	---	0.00	30.068 
03:40	44.5	44.5	44.5	93	42.6	0	0	---	0.00	30.068 
03:45	44.5	44.5	44.5	93	42.6	0	0	---	0.00	30.064 
03:50	44.3	44.3	44.3	93	42.4	0	0	---	0.00	30.064 
03:55	44.2	44.2	44.2	93	42.3	0	0	---	0.00	30.064 
04:00	44.2	44.2	44.2	93	42.3	0	0	---	0.00	30.063 
04:05	44.1	44.1	44.1	93	42.2	0	0	---	0.00	30.063 
04:10	44.1	44.1	44.1	93	42.2	0	0	---	0.00	30.063 
04:15	44.1	44.1	44.1	93	42.2	0	0	---	0.00	30.061 
04:20	43.9	43.9	43.9	93	42.0	0	0	---	0.00	30.061 
04:25	43.9	43.9	43.9	93	42.0	0	0	---	0.00	30.061 
04:30	43.8	43.8	43.8	93	41.9	0	0	---	0.00	30.060 
04:35	43.8	43.8	43.8	93	41.9	0	0	---	0.00	30.060 
04:40	43.6	43.6	43.6	93	41.7	0	0	---	0.00	30.060 
04:45	43.6	43.6	43.6	93	41.7	0	0	---	0.00	30.059 
04:50	43.5	43.5	43.5	93	41.6	0	0	---	0.00	30.059 
04:55	43.5	43.5	43.5	94	41.9	0	0	---	0.00	30.059 
05:00	43.5	43.5	43.5	94	41.9	0	0	---	0.00	30.056 
05:05	43.5	43.5	43.5	94	41.9	0	0	---	0.00	30.056 
05:10	43.5	43.5	43.5	94	41.9	0	0	---	0.00	30.056 
05:15	43.5	43.5	43.5	94	41.9	0	0	---	0.00	30.049 
05:20	43.5	43.5	43.5	94	41.9	0	0	---	0.00	30.049 
05:25	43.5	43.5	43.5	94	41.9	0	0	---	0.00	30.049 
05:30	43.5	43.5	43.5	94	41.9	0	0	---	0.00	30.049 
05:35	43.5	43.5	43.5	94	41.9	0	0	---	0.00	30.049 
05:40	43.6	43.6	43.6	94	42.0	0	0	---	0.00	30.049 
05:45	43.8	43.8	43.8	94	42.2	0	0	---	0.00	30.049 
05:50	44.1	44.1	44.1	95	42.8	0	0	---	0.00	30.049 
05:55	44.2	44.2	44.2	95	42.9	0	0	---	0.00	30.049 
06:00	44.5	44.5	44.5	95	43.2	0	0	---	0.00	30.049 
06:05	44.5	44.5	44.5	95	43.2	0	0	---	0.00	30.049 
06:10	44.6	44.6	44.6	95	43.3	0	0	---	0.00	30.049 
06:15	44.8	44.8	44.8	95	43.5	0	0	---	0.00	30.052 
06:20	44.8	44.8	44.8	95	43.5	0	0	---	0.00	30.052 
06:25	44.8	44.8	44.8	95	43.5	0	0	---	0.00	30.052 
06:30	44.8	44.8	44.8	95	43.5	0	0	---	0.00	30.050 
06:35	44.6	44.6	44.6	95	43.3	0	0	---	0.00	30.050 
06:40	44.6	44.6	44.6	95	43.3	0	0	---	0.00	30.050 
06:45	44.5	44.5	44.5	95	43.2	0	0	---	0.00	30.049 
06:50	44.3	44.3	44.3	94	42.7	0	0	---	0.00	30.049 
06:55	44.2	44.2	44.2	95	42.9	0	0	---	0.00	30.049 
07:00	44.1	44.1	44.1	95	42.8	0	0	---	0.00	30.047 
07:05	43.9	43.9	43.9	95	42.6	0	0	---	0.00	30.047 
07:10	43.8	43.8	43.8	95	42.5	0	0	---	0.00	30.047 
07:15	43.8	43.8	43.8	95	42.5	0	0	---	0.00	30.052 
07:20	43.6	43.6	43.6	95	42.3	0	0	---	0.00	30.052 
07:25	43.6	43.6	43.6	95	42.3	0	0	---	0.00	30.052 
07:30	43.6	43.6	43.6	95	42.3	0	0	---	0.00	30.053 
07:35	43.5	43.5	43.5	95	42.2	0	0	---	0.00	30.053 
07:40	43.6	43.6	43.6	95	42.3	0	0	---	0.00	30.053 
07:45	43.6	43.6	43.6	95	42.3	0	0	---	0.00	30.062 
07:50	43.6	43.6	43.6	95	42.3	0	0	---	0.00	30.062 
07:55	43.9	43.9	43.9	95	42.6	0	0	---	0.00	30.062 
08:00	44.1	44.1	44.1	95	42.8	0	0	---	0.00	30.063 
08:05	44.3	44.3	44.3	95	43.0	0	0	---	0.00	30.063 
08:10	44.8	44.8	44.8	95	43.5	0	0	---	0.00	30.063 
08:15	45.2	45.2	45.2	96	44.1	0	0	---	0.00	30.068 
08:20	45.7	45.7	45.7	96	44.6	0	0	---	0.00	30.068 
08:25	46.0	46.0	46.0	96	44.9	0	0	---	0.00	30.068 
08:30	46.4	46.4	46.4	96	45.3	0	0	---	0.00	30.064 
08:35	46.8	46.8	46.8	96	45.7	0	0	---	0.00	30.064 
08:40	47.3	47.3	47.3	96	46.2	0	0	---	0.00	30.064 
08:45	47.7	47.7	47.7	96	46.6	0	0	---	0.00	30.062 
08:50	48.2	48.2	48.2	96	47.1	0	0	---	0.00	30.062 
08:55	48.6	48.6	48.6	96	47.5	0	0	---	0.00	30.062 
09:00	49.1	49.1	49.1	96	48.0	0	0	---	0.00	30.062 
09:05	49.5	49.5	49.5	96	48.4	0	0	---	0.00	30.062 
09:10	49.8	49.8	49.8	96	48.7	0	0	---	0.00	30.062 
09:15	50.1	50.1	50.1	96	49.0	0	0	---	0.00	30.064 
09:20	50.4	50.4	50.4	96	49.3	0	0	---	0.00	30.064 
09:25	50.7	50.7	50.7	96	49.6	0	0	---	0.00	30.064 
09:30	51.0	51.0	51.0	96	49.9	0	0	---	0.00	30.059 
09:35	51.4	51.4	51.4	96	50.3	0	0	---	0.00	30.059 
09:40	51.9	51.9	51.9	96	50.8	0	0	---	0.00	30.059 
09:45	52.6	52.6	52.6	96	51.5	0	0	---	0.00	30.050 
09:50	53.2	53.2	53.2	95	51.8	0	0	---	0.00	30.050 
09:55	53.6	53.6	53.6	95	52.2	0	0	---	0.00	30.050 
10:00	53.9	53.9	53.9	95	52.5	0	0	---	0.00	30.046 
10:05	54.4	54.4	54.4	94	52.7	0	1	338	0.00	30.046 
10:10	54.8	54.8	54.8	93	52.8	0	1	338	0.00	30.046 
10:15	55.4	55.4	55.4	92	53.1	0	1	338	0.00	30.041 
10:20	56.2	56.2	56.2	91	53.6	0	1	338	0.00	30.041 
10:25	56.5	56.5	56.5	88	53.0	0	1	338	0.00	30.041 
10:30	57.0	57.0	57.0	86	52.9	0	1	338	0.00	30.034 
10:35	57.5	57.5	57.5	81	51.7	1	3	338	0.00	30.034 
10:40	58.0	58.0	58.0	79	51.5	0	1	338	0.00	30.034 
10:45	58.4	58.4	58.4	77	51.2	0	1	338	0.00	30.031 
10:50	59.0	59.0	59.0	78	52.1	0	1	338	0.00	30.031 
10:55	59.3	59.3	59.3	75	51.4	0	1	338	0.00	30.031 
11:00	59.6	59.6	59.6	74	51.3	0	1	338	0.00	30.027 
11:05	60.1	60.1	60.1	73	51.4	0	1	338	0.00	30.027 
11:10	60.7	60.7	60.7	71	51.2	0	2	338	0.00	30.027 
11:15	61.3	61.3	61.3	70	51.4	0	1	338	0.00	30.024 
11:20	61.8	61.8	61.8	69	51.5	0	1	338	0.00	30.024 
11:25	62.0	62.0	62.0	68	51.3	0	1	338	0.00	30.024 
11:30	62.6	62.6	62.6	69	52.3	0	1	338	0.00	30.024 
11:35	62.6	62.6	62.6	64	50.2	0	2	338	0.00	30.024 
11:40	62.6	62.6	62.6	66	51.1	0	1	338	0.00	30.024 
11:45	62.7	62.7	62.7	63	49.9	0	1	338	0.00	30.017 
11:50	62.6	62.6	62.6	61	49.0	0	2	338	0.00	30.017 
11:55	62.9	62.9	62.9	59	48.3	0	2	338	0.00	30.017 
12:00	63.9	63.9	63.9	64	51.5	0	1	338	0.00	30.013 
12:05	64.7	64.7	64.7	61	50.9	0	1	338	0.00	30.013 
12:10	65.2	65.2	65.2	54	48.1	0	1	338	0.00	30.013 
12:15	65.2	65.2	65.2	52	47.1	0	2	338	0.00	30.016 
12:20	65.0	65.0	65.0	55	48.4	0	1	338	0.00	30.016 
12:25	64.2	64.2	64.2	51	45.7	1	2	338	0.00	30.016 
12:30	63.7	63.7	63.7	54	46.7	0	1	338	0.00	30.013 
12:35	63.2	63.2	63.2	55	46.8	0	2	338	0.00	30.013 
12:40	63.4	63.4	63.4	53	46.0	1	3	338	0.00	30.013 
12:45	62.9	62.9	62.9	54	46.0	1	3	315	0.00	30.014 
12:50	62.7	62.7	62.7	54	45.8	1	3	315	0.00	30.014 
12:55	62.4	62.4	62.4	54	45.5	0	1	315	0.00	30.014 
13:00	62.4	62.4	62.4	57	47.0	0	2	315	0.00	30.016 
13:05	62.7	62.7	62.7	57	47.2	0	1	315	0.00	30.016 
13:10	63.1	63.1	63.1	58	48.1	0	1	315	0.00	30.016 
13:15	63.7	63.7	63.7	57	48.2	1	4	90	0.00	30.013 
13:20	63.9	63.9	63.9	54	46.9	0	1	45	0.00	30.013 
13:25	63.9	63.9	63.9	53	46.4	0	2	45	0.00	30.013 
13:30	63.5	63.5	63.5	54	46.6	0	2	45	0.00	30.015 
13:35	63.5	63.5	63.5	54	46.6	1	3	45	0.00	30.015 
13:40	63.7	63.7	63.7	54	46.7	0	3	292	0.00	30.015 
13:45	63.7	63.7	63.7	54	46.7	0	0	---	0.00	30.013 
13:50	63.7	63.7	63.7	54	46.7	0	3	292	0.00	30.013 
13:55	63.7	63.7	63.7	56	47.7	0	3	292	0.00	30.013 
14:00	63.7	63.7	63.7	55	47.2	0	2	292	0.00	30.012 
14:05	63.7	63.7	63.7	54	46.7	0	2	292	0.00	30.012 
14:10	63.5	63.5	63.5	54	46.6	1	3	292	0.00	30.012 
14:15	63.7	63.7	63.7	53	46.2	1	3	292	0.00	30.012 
14:20	63.9	63.9	63.9	53	46.4	0	3	292	0.00	30.012 
14:25	63.9	63.9	63.9	53	46.4	0	1	292	0.00	30.012 
14:30	64.3	64.3	64.3	54	47.3	0	2	292	0.00	30.003 
14:35	64.7	64.7	64.7	52	46.7	0	2	292	0.00	30.003 
14:40	64.7	64.7	64.7	52	46.7	1	3	292	0.00	30.003 
14:45	65.3	65.3	65.3	53	47.7	1	3	292	0.00	29.996 
14:50	65.6	65.6	65.6	50	46.5	1	3	292	0.00	29.996 
14:55	65.5	65.5	65.5	49	45.8	1	3	292	0.00	29.996 
15:00	65.6	65.6	65.6	50	46.5	1	3	292	0.00	29.988 
15:05	65.6	65.6	65.6	50	46.5	1	3	292	0.00	29.988 
15:10	66.3	66.3	66.3	51	47.6	1	4	292	0.00	29.988 
15:15	66.8	66.8	66.8	49	47.0	1	3	292	0.00	29.983 
15:20	67.1	67.1	67.1	46	45.6	1	2	292	0.00	29.983 
15:25	67.1	67.1	67.1	46	45.6	0	2	292	0.00	29.983 
15:30	66.8	66.8	66.8	46	45.3	0	1	292	0.00	29.982 
15:35	66.1	66.1	66.1	48	45.8	0	2	292	0.00	29.982 
15:40	66.1	66.1	66.1	50	46.9	0	1	292	0.00	29.982 
15:45	66.4	66.4	66.4	51	47.7	0	2	292	0.00	29.981 
15:50	67.3	67.3	67.3	50	48.0	1	3	292	0.00	29.981 
15:55	67.8	67.8	67.8	49	47.9	0	2	292	0.00	29.981 
16:00	67.9	67.9	67.9	48	47.5	0	3	292	0.00	29.977 
16:05	67.9	67.9	67.9	46	46.3	0	2	292	0.00	29.977 
16:10	67.9	67.9	67.9	48	47.5	0	1	292	0.00	29.977 
16:15	67.9	67.9	67.9	48	47.5	1	4	292	0.00	29.975 
16:20	67.6	67.6	67.6	47	46.6	0	1	292	0.00	29.975 
16:25	66.9	66.9	66.9	47	46.0	0	1	292	0.00	29.975 
16:30	66.4	66.4	66.4	50	47.2	0	1	292	0.00	29.976 
16:35	66.1	66.1	66.1	51	47.4	0	1	292	0.00	29.976 
16:40	65.8	65.8	65.8	49	46.1	1	3	292	0.00	29.976 
16:45	66.1	66.1	66.1	51	47.4	0	1	292	0.00	29.972 
16:50	66.4	66.4	66.4	48	46.1	1	3	292	0.00	29.972 
16:55	66.8	66.8	66.8	50	47.6	0	1	292	0.00	29.972 
17:00	66.8	66.8	66.8	49	47.0	0	1	292	0.00	29.973 
17:05	66.6	66.6	66.6	50	47.4	0	0	---	0.00	29.973 
17:10	66.6	66.6	66.6	50	47.4	0	2	292	0.00	29.973 
17:15	66.4	66.4	66.4	50	47.2	0	2	292	0.00	29.971 
17:20	66.1	66.1	66.1	50	46.9	0	2	292	0.00	29.971 
17:25	65.8	65.8	65.8	50	46.6	0	1	292	0.00	29.971 
17:30	65.6	65.6	65.6	51	47.0	0	3	292	0.00	29.966 
17:35	65.6	65.6	65.6	52	47.5	0	1	292	0.00	29.966 
17:40	66.0	66.0	66.0	52	47.9	0	0	---	0.00	29.966 
17:45	66.3	66.3	66.3	50	47.1	0	3	292	0.00	29.966 
17:50	66.4	66.4	66.4	48	46.1	0	2	292	0.00	29.966 
17:55	66.9	66.9	66.9	49	47.1	0	3	292	0.00	29.966 
18:00	67.1	67.1	67.1	47	46.2	0	2	292	0.00	29.964 
18:05	66.9	66.9	66.9	48	46.6	0	1	292	0.00	29.964 
18:10	66.6	66.6	66.6	47	45.7	0	1	292	0.00	29.964 
18:15	66.3	66.3	66.3	50	47.1	0	1	292	0.00	29.966 
18:20	66.3	66.3	66.3	50	47.1	0	0	---	0.00	29.966 
18:25	66.3	66.3	66.3	50	47.1	0	1	292	0.00	29.966 
18:30	66.3	66.3	66.3	49	46.6	0	1	292	0.00	29.966 
18:35	66.3	66.3	66.3	48	46.0	0	1	292	0.00	29.966 
18:40	66.3	66.3	66.3	48	46.0	0	2	292	0.00	29.966 
18:45	66.1	66.1	66.1	48	45.8	0	2	292	0.00	29.965 
18:50	65.8	65.8	65.8	49	46.1	0	1	292	0.00	29.965 
18:55	65.6	65.6	65.6	50	46.5	0	1	292	0.00	29.965 
19:00	65.3	65.3	65.3	51	46.7	0	0	---	0.00	29.965 
19:05	65.2	65.2	65.2	52	47.1	0	0	---	0.00	29.965 
19:10	65.0	65.0	65.0	55	48.4	0	0	---	0.00	29.965 
19:15	64.5	64.5	64.5	55	48.0	0	0	---	0.00	29.961 
19:20	64.2	64.2	64.2	56	48.2	0	0	---	0.00	29.961 
19:25	63.9	63.9	63.9	57	48.4	0	0	---	0.00	29.961 
19:30	63.5	63.5	63.5	58	48.5	0	0	---	0.00	29.963 
19:35	63.1	63.1	63.1	60	49.0	0	0	---	0.00	29.963 
19:40	62.7	62.7	62.7	61	49.1	0	0	---	0.00	29.963 
19:45	62.1	62.1	62.1	62	48.9	0	0	---	0.00	29.964 
19:50	61.6	61.6	61.6	63	48.9	0	0	---	0.00	29.964 
19:55	61.0	61.0	61.0	64	48.7	0	0	---	0.00	29.964 
20:00	60.5	60.5	60.5	65	48.7	0	0	---	0.00	29.968 
20:05	59.9	59.9	59.9	68	49.3	0	0	---	0.00	29.968 
20:10	59.3	59.3	59.3	69	49.1	0	0	---	0.00	29.968 
20:15	58.7	58.7	58.7	71	49.3	0	0	---	0.00	29.966 
20:20	58.3	58.3	58.3	73	49.7	0	0	---	0.00	29.966 
20:25	57.8	57.8	57.8	74	49.6	0	0	---	0.00	29.966 
20:30	57.3	57.3	57.3	75	49.4	0	0	---	0.00	29.968 
20:35	57.0	57.0	57.0	76	49.5	0	0	---	0.00	29.968 
20:40	56.6	56.6	56.6	77	49.5	0	0	---	0.00	29.968 
20:45	56.3	56.3	56.3	78	49.5	0	0	---	0.00	29.970 
20:50	56.2	56.2	56.2	79	49.8	0	0	---	0.00	29.970 
20:55	55.9	55.9	55.9	80	49.8	0	0	---	0.00	29.970 
21:00	55.7	55.7	55.7	81	50.0	0	0	---	0.00	29.972 
21:05	55.4	55.4	55.4	82	50.0	0	0	---	0.00	29.972 
21:10	55.3	55.3	55.3	82	49.9	0	0	---	0.00	29.972 
21:15	55.1	55.1	55.1	83	50.0	0	0	---	0.00	29.975 
21:20	55.0	55.0	55.0	84	50.3	0	0	---	0.00	29.975 
21:25	54.8	54.8	54.8	84	50.1	0	0	---	0.00	29.975 
21:30	54.7	54.7	54.7	84	50.0	0	0	---	0.00	29.981 
21:35	54.5	54.5	54.5	85	50.1	0	0	---	0.00	29.981 
21:40	54.2	54.2	54.2	85	49.8	0	0	---	0.00	29.981 
21:45	54.1	54.1	54.1	85	49.7	0	0	---	0.00	29.983 
21:50	53.9	53.9	53.9	86	49.8	0	0	---	0.00	29.983 
21:55	53.6	53.6	53.6	86	49.5	0	0	---	0.00	29.983 
22:00	53.5	53.5	53.5	86	49.4	0	0	---	0.00	29.985 
22:05	53.3	53.3	53.3	87	49.5	0	0	---	0.00	29.985 
22:10	53.2	53.2	53.2	87	49.4	0	0	---	0.00	29.985 
22:15	53.1	53.1	53.1	87	49.3	0	0	---	0.00	29.987 
22:20	52.9	52.9	52.9	88	49.4	0	0	---	0.00	29.987 
22:25	52.9	52.9	52.9	88	49.4	0	0	---	0.00	29.987 
22:30	52.8	52.8	52.8	88	49.3	0	0	---	0.00	29.992 
22:35	52.9	52.9	52.9	88	49.4	0	0	---	0.00	29.992 
22:40	53.1	53.1	53.1	88	49.6	0	0	---	0.00	29.992 
22:45	52.9	52.9	52.9	87	49.1	0	0	---	0.00	29.994 
22:50	52.9	52.9	52.9	87	49.1	0	0	---	0.00	29.994 
22:55	52.8	52.8	52.8	87	49.0	0	0	---	0.00	29.994 
23:00	52.6	52.6	52.6	87	48.8	0	0	---	0.00	29.995 
23:05	52.5	52.5	52.5	87	48.7	0	0	---	0.00	29.995 
23:10	52.5	52.5	52.5	87	48.7	0	0	---	0.00	29.995 
23:15	52.5	52.5	52.5	87	48.7	0	0	---	0.00	29.994 
23:20	52.3	52.3	52.3	87	48.5	0	0	---	0.00	29.994 
23:25	52.3	52.3	52.3	87	48.5	0	0	---	0.00	29.994 
23:30	52.0	52.0	52.0	87	48.3	0	0	---	0.00	30.001 
23:35	51.9	51.9	51.9	87	48.2	0	0	---	0.00	30.001 
23:40	51.7	51.7	51.7	87	48.0	0	0	---	0.00	30.001 
23:45	51.6	51.6	51.6	87	47.9	0	0	---	0.00	30.005 
23:50	51.4	51.4	51.4	87	47.7	0	0	---	0.00	30.005 
23:55	51.3	51.3	51.3	88	47.9	0	0	---	0.00	30.005 

CoCoRaHS
IN-AL-39
A2 Web Hosting
Creative Commons License
GoDaddy
search engine by freefind advanced

loaded 2018-11-16 00:11:11 • last modified 2010-11-18 10:43:29
Privacy PolicyDisclaimer
• wx.awcolley.com is powered by PmWiki v.2002016 •
• all content (unless otherwise noted) © 2018 A W Colley